Time;durP1;ratioP1;P1;durP2;ratioP2;P2;SDS_P1;SDS_P2;PMS_P1;PMS_P2;Temp;Humidity;BMP_temperature;BMP_pressure;BME280_temperature;BME280_humidity;BME280_pressure;Samples;Min_cycle;Max_cycle;Signal;HPM_P1;HPM_P2
2021/12/15 00:02:11;;;;;;;42.97;26.15;;;11.60;86.40;;;;;;5074705;28;20103;-68
2021/12/15 00:04:37;;;;;;;41.03;24.33;;;11.60;86.30;;;;;;5075335;28;20113;-68
2021/12/15 00:07:03;;;;;;;40.58;25.13;;;11.60;86.40;;;;;;5074863;28;20075;-68
2021/12/15 00:09:29;;;;;;;38.85;23.48;;;11.70;86.40;;;;;;5074820;28;20037;-68
2021/12/15 00:11:55;;;;;;;40.03;23.35;;;11.60;86.30;;;;;;5073943;28;20029;-68
2021/12/15 00:14:20;;;;;;;42.00;25.73;;;11.70;86.40;;;;;;5073961;28;20020;-68
2021/12/15 00:16:48;;;;;;;39.35;23.20;;;11.60;86.30;;;;;;5074527;28;20074;-68
2021/12/15 00:19:14;;;;;;;36.65;23.60;;;11.70;86.30;;;;;;5056920;28;20020;-68
2021/12/15 00:21:40;;;;;;;38.63;24.58;;;11.60;86.30;;;;;;5075088;28;20120;-68
2021/12/15 00:24:07;;;;;;;40.47;25.27;;;11.60;86.30;;;;;;5075160;28;20488;-68
2021/12/15 00:26:33;;;;;;;37.80;24.45;;;11.60;86.30;;;;;;5074202;28;20037;-67
2021/12/15 00:28:59;;;;;;;35.53;23.00;;;11.60;86.40;;;;;;5074280;28;20162;-68
2021/12/15 00:31:25;;;;;;;39.47;23.30;;;11.60;86.30;;;;;;5074404;28;20044;-67
2021/12/15 00:33:52;;;;;;;38.42;23.58;;;11.60;86.30;;;;;;5073896;28;20111;-67
2021/12/15 00:36:18;;;;;;;34.05;22.45;;;11.60;86.30;;;;;;5050924;28;20112;-68
2021/12/15 00:38:43;;;;;;;37.30;23.75;;;11.60;86.30;;;;;;5074990;28;20460;-68
2021/12/15 00:41:10;;;;;;;37.95;23.13;;;11.60;86.30;;;;;;5074076;28;20382;-68
2021/12/15 00:43:37;;;;;;;36.70;24.10;;;11.60;86.30;;;;;;5074112;28;20033;-68
2021/12/15 00:46:03;;;;;;;36.15;23.58;;;11.60;86.30;;;;;;5056974;28;20464;-67
2021/12/15 00:48:29;;;;;;;38.80;22.92;;;11.60;86.30;;;;;;5075255;28;20346;-67
2021/12/15 00:50:55;;;;;;;42.15;26.67;;;11.60;86.30;;;;;;5074064;28;20486;-67
2021/12/15 00:53:20;;;;;;;45.47;25.42;;;11.60;86.30;;;;;;5073621;28;20054;-68
2021/12/15 00:55:46;;;;;;;38.05;24.42;;;11.60;86.40;;;;;;5073825;28;20032;-68
2021/12/15 00:58:12;;;;;;;38.47;25.02;;;11.60;86.40;;;;;;5075225;28;20425;-67
2021/12/15 01:00:52;;;;;;;42.70;27.67;;;11.60;86.40;;;;;;5073671;28;20107;-68
2021/12/15 01:03:19;;;;;;;39.00;23.50;;;11.60;86.40;;;;;;5074451;28;20032;-68
2021/12/15 01:05:50;;;;;;;37.40;25.10;;;11.50;86.40;;;;;;5074629;28;20389;-67
2021/12/15 01:08:20;;;;;;;37.80;24.13;;;11.50;86.40;;;;;;5074656;28;20128;-68
2021/12/15 01:11:01;;;;;;;39.33;25.67;;;11.50;86.30;;;;;;5053566;28;20036;-68
2021/12/15 01:21:43;;;;;;;37.80;23.55;;;11.50;86.40;;;;;;5072826;28;20385;-68
2021/12/15 01:24:12;;;;;;;34.78;22.17;;;11.50;86.40;;;;;;5073676;28;20032;-68
2021/12/15 01:26:37;;;;;;;38.65;24.63;;;11.50;86.50;;;;;;5073539;28;20036;-68
2021/12/15 01:29:03;;;;;;;39.67;25.75;;;11.50;86.40;;;;;;5074070;28;20044;-67
2021/12/15 01:31:30;;;;;;;43.25;26.73;;;11.50;86.40;;;;;;5074353;28;20353;-68
2021/12/15 01:33:56;;;;;;;38.67;24.05;;;11.50;86.40;;;;;;5056580;28;20016;-68
2021/12/15 01:36:22;;;;;;;39.97;25.23;;;11.50;86.40;;;;;;5073517;28;20380;-67
2021/12/15 01:38:48;;;;;;;42.15;26.75;;;11.50;86.40;;;;;;5073600;28;20360;-68
2021/12/15 01:41:21;;;;;;;37.65;25.27;;;11.60;86.50;;;;;;5073267;28;20033;-68
2021/12/15 01:46:54;;;;;;;44.42;25.73;;;11.50;86.40;;;;;;5073463;28;20040;-68
2021/12/15 01:49:39;;;;;;;40.08;24.95;;;11.60;86.40;;;;;;5073797;28;20345;-67
2021/12/15 01:52:30;;;;;;;40.50;25.77;;;11.50;86.30;;;;;;5072853;28;20068;-67
2021/12/15 01:54:59;;;;;;;37.78;25.10;;;11.60;86.30;;;;;;5074002;28;20047;-68
2021/12/15 01:57:31;;;;;;;40.63;25.92;;;11.50;86.30;;;;;;5053343;28;20082;-68
2021/12/15 01:59:58;;;;;;;41.60;26.23;;;11.50;86.30;;;;;;5069259;28;20047;-68
2021/12/15 02:02:25;;;;;;;42.10;26.00;;;11.60;86.30;;;;;;5074212;28;20334;-67
2021/12/15 02:04:52;;;;;;;44.65;28.70;;;11.60;86.30;;;;;;5075005;28;20124;-68
2021/12/15 02:07:20;;;;;;;39.80;26.40;;;11.60;86.30;;;;;;5059676;28;20032;-68
2021/12/15 02:12:26;;;;;;;41.88;25.52;;;11.60;86.30;;;;;;5077398;28;20032;-68
2021/12/15 02:14:52;;;;;;;42.25;26.70;;;11.60;86.30;;;;;;5077483;28;20116;-68
2021/12/15 02:17:19;;;;;;;41.08;25.15;;;11.60;86.30;;;;;;5076332;28;20024;-68
2021/12/15 02:19:46;;;;;;;39.30;25.83;;;11.60;86.30;;;;;;5076470;28;20361;-67
2021/12/15 02:22:12;;;;;;;41.10;25.88;;;11.60;86.30;;;;;;5075066;28;20039;-68
2021/12/15 02:24:39;;;;;;;44.50;26.15;;;11.60;86.30;;;;;;5077540;28;20032;-68
2021/12/15 02:27:05;;;;;;;41.97;24.75;;;11.60;86.30;;;;;;5076265;28;20024;-68
2021/12/15 02:29:35;;;;;;;40.55;25.30;;;11.60;86.30;;;;;;5059403;28;20147;-68
2021/12/15 02:32:17;;;;;;;42.50;25.92;;;11.60;86.30;;;;;;5076118;28;20024;-68
2021/12/15 02:37:27;;;;;;;40.38;24.27;;;11.60;86.30;;;;;;5071895;28;20170;-68
2021/12/15 02:40:04;;;;;;;39.78;24.98;;;11.50;86.20;;;;;;5056918;28;20499;-67
2021/12/15 02:42:34;;;;;;;37.65;23.45;;;11.60;86.30;;;;;;5076256;28;20078;-68
2021/12/15 02:45:01;;;;;;;36.53;23.13;;;11.50;86.90;;;;;;5076910;28;20028;-68
2021/12/15 02:47:29;;;;;;;41.22;26.58;;;11.50;86.30;;;;;;5077017;28;20025;-67
2021/12/15 02:49:56;;;;;;;37.78;24.65;;;11.60;86.30;;;;;;5076152;28;20112;-67
2021/12/15 02:52:23;;;;;;;36.92;23.20;;;11.60;86.30;;;;;;5076256;28;20093;-67
2021/12/15 02:54:49;;;;;;;39.42;23.67;;;11.50;86.30;;;;;;5076817;28;20023;-67
2021/12/15 02:57:15;;;;;;;37.72;24.05;;;11.50;86.30;;;;;;5076264;28;20345;-67
2021/12/15 03:00:16;;;;;;;36.97;21.75;;;11.50;86.30;;;;;;5076800;28;20025;-68
2021/12/15 03:06:07;;;;;;;35.38;21.40;;;11.50;86.40;;;;;;5076822;28;20025;-67
2021/12/15 03:08:23;;;;;;;38.45;24.75;;;11.50;86.30;;;;;;5074843;28;20044;-68
2021/12/15 03:16:24;;;;;;;37.47;22.98;;;11.50;86.30;;;;;;5074793;28;20029;-67
2021/12/15 03:18:50;;;;;;;37.50;23.38;;;11.50;86.30;;;;;;5076695;28;20032;-68
2021/12/15 03:21:24;;;;;;;40.85;23.10;;;11.50;86.30;;;;;;5076289;28;20137;-68
2021/12/15 03:24:07;;;;;;;35.67;23.30;;;11.50;86.40;;;;;;5058179;28;20033;-67
2021/12/15 03:26:39;;;;;;;36.70;22.95;;;11.50;86.30;;;;;;5075233;28;20032;-68
2021/12/15 03:34:48;;;;;;;39.78;23.67;;;11.50;86.40;;;;;;5076090;28;20032;-67
2021/12/15 03:37:25;;;;;;;39.80;24.50;;;11.50;86.30;;;;;;5076224;28;20036;-68
2021/12/15 03:39:55;;;;;;;37.15;22.45;;;11.50;86.30;;;;;;5075225;28;20035;-67
2021/12/15 03:42:27;;;;;;;36.65;23.70;;;11.50;86.30;;;;;;5075966;28;20040;-67
2021/12/15 03:44:54;;;;;;;37.45;23.13;;;11.50;86.30;;;;;;5075896;28;20025;-67
2021/12/15 03:47:23;;;;;;;36.67;23.35;;;11.50;86.40;;;;;;5075540;28;20028;-67
2021/12/15 03:49:51;;;;;;;37.75;22.45;;;11.50;86.40;;;;;;5075885;28;20125;-68
2021/12/15 03:52:17;;;;;;;37.33;24.20;;;11.50;86.40;;;;;;5075203;28;20115;-67
2021/12/15 03:54:44;;;;;;;39.58;24.15;;;11.50;86.40;;;;;;5058171;28;20040;-68
2021/12/15 03:57:10;;;;;;;40.17;24.58;;;11.50;86.40;;;;;;5075013;28;20037;-67
2021/12/15 03:59:41;;;;;;;38.63;23.58;;;11.50;86.40;;;;;;5058210;28;20021;-67
2021/12/15 04:02:07;;;;;;;38.55;24.25;;;11.50;86.40;;;;;;5057251;28;20093;-68
2021/12/15 04:04:33;;;;;;;40.35;25.70;;;11.50;86.40;;;;;;5058210;28;20434;-68
2021/12/15 04:06:59;;;;;;;35.80;22.55;;;11.50;86.40;;;;;;5075512;28;20060;-67
2021/12/15 04:09:24;;;;;;;39.67;22.80;;;11.50;86.40;;;;;;5075154;28;20361;-67
2021/12/15 04:11:52;;;;;;;35.17;22.50;;;11.50;86.40;;;;;;5074096;28;20032;-67
2021/12/15 04:14:21;;;;;;;40.80;24.23;;;11.50;86.30;;;;;;5075021;28;20025;-67
2021/12/15 04:17:01;;;;;;;40.45;24.13;;;11.50;86.30;;;;;;5054274;28;20056;-68
2021/12/15 04:19:27;;;;;;;40.17;24.50;;;11.50;86.30;;;;;;5074450;28;20054;-67
2021/12/15 04:21:53;;;;;;;35.63;22.15;;;11.50;86.30;;;;;;5074301;28;20025;-67
2021/12/15 04:24:19;;;;;;;40.15;22.80;;;11.50;86.20;;;;;;5075163;28;20429;-67
2021/12/15 04:26:47;;;;;;;38.33;23.20;;;11.50;86.20;;;;;;5073467;28;20048;-68
2021/12/15 04:29:13;;;;;;;36.92;22.67;;;11.50;86.20;;;;;;5056888;28;20185;-67
2021/12/15 04:31:46;;;;;;;40.08;24.40;;;11.50;86.20;;;;;;5073911;28;20032;-67
2021/12/15 04:34:12;;;;;;;41.97;25.15;;;11.50;86.30;;;;;;5073736;28;20361;-67
2021/12/15 04:36:41;;;;;;;41.05;24.13;;;11.50;86.30;;;;;;5074997;28;20040;-68
2021/12/15 04:39:10;;;;;;;34.60;22.83;;;11.50;86.30;;;;;;5073766;28;20067;-67
2021/12/15 04:41:35;;;;;;;37.38;23.02;;;11.50;86.30;;;;;;5074660;28;20301;-67
2021/12/15 04:44:09;;;;;;;39.72;22.77;;;11.50;86.30;;;;;;5073594;28;20453;-67
2021/12/15 04:46:37;;;;;;;37.25;22.40;;;11.50;86.30;;;;;;5074836;28;20039;-68
2021/12/15 04:49:05;;;;;;;37.67;23.77;;;11.50;86.30;;;;;;5056627;28;20372;-68
2021/12/15 04:51:32;;;;;;;39.33;23.17;;;11.50;86.30;;;;;;5073424;28;20338;-68
2021/12/15 04:53:58;;;;;;;39.28;23.88;;;11.50;86.30;;;;;;5073536;28;20032;-67
2021/12/15 04:56:25;;;;;;;37.70;24.48;;;11.50;86.30;;;;;;5073416;28;20086;-67
2021/12/15 04:58:52;;;;;;;35.83;21.95;;;11.50;86.20;;;;;;5072906;28;20078;-67
2021/12/15 05:01:17;;;;;;;41.10;23.98;;;11.50;86.20;;;;;;5073303;28;20420;-67
2021/12/15 05:03:43;;;;;;;37.72;23.20;;;11.50;86.20;;;;;;5073915;28;20012;-68
2021/12/15 05:06:09;;;;;;;36.30;22.73;;;11.50;86.30;;;;;;5074166;28;20020;-68
2021/12/15 05:08:36;;;;;;;37.40;23.75;;;11.50;86.30;;;;;;5073180;28;20023;-68
2021/12/15 05:11:03;;;;;;;39.30;22.90;;;11.50;86.30;;;;;;5073154;28;20107;-67
2021/12/15 05:13:29;;;;;;;38.45;22.83;;;11.50;86.30;;;;;;5056188;28;20032;-68
2021/12/15 05:15:54;;;;;;;36.85;23.52;;;11.50;86.30;;;;;;5072711;28;20369;-67
2021/12/15 05:18:20;;;;;;;38.55;23.20;;;11.50;86.30;;;;;;5074013;28;20103;-67
2021/12/15 05:20:50;;;;;;;37.85;22.52;;;11.50;86.30;;;;;;5073274;28;20036;-67
2021/12/15 05:23:17;;;;;;;35.13;21.70;;;11.50;86.30;;;;;;5072260;28;20029;-67
2021/12/15 05:25:43;;;;;;;35.20;22.65;;;11.50;86.20;;;;;;5073381;28;20051;-67
2021/12/15 05:28:09;;;;;;;36.35;23.15;;;11.50;86.20;;;;;;5071256;28;20044;-68
2021/12/15 05:30:36;;;;;;;36.03;23.08;;;11.50;86.20;;;;;;5073003;28;20338;-67
2021/12/15 05:33:03;;;;;;;36.10;23.35;;;11.50;86.20;;;;;;5072157;28;20083;-67
2021/12/15 05:35:29;;;;;;;35.78;21.55;;;11.50;86.20;;;;;;5073189;28;20025;-68
2021/12/15 05:37:58;;;;;;;36.70;22.52;;;11.50;86.20;;;;;;5073324;28;20017;-68
2021/12/15 05:40:26;;;;;;;38.03;23.67;;;11.50;86.20;;;;;;5076217;28;20056;-67
2021/12/15 05:42:56;;;;;;;38.88;23.17;;;11.50;86.20;;;;;;5076471;28;20130;-67
2021/12/15 05:45:26;;;;;;;38.55;21.95;;;11.50;86.10;;;;;;5057122;28;20445;-67
2021/12/15 05:47:52;;;;;;;39.33;24.42;;;11.50;86.10;;;;;;5071930;28;20029;-67
2021/12/15 05:50:18;;;;;;;38.15;24.17;;;11.60;86.20;;;;;;5077689;28;20032;-67
2021/12/15 05:52:44;;;;;;;37.15;23.38;;;11.50;86.10;;;;;;5076151;28;20025;-67
2021/12/15 05:55:12;;;;;;;37.35;23.05;;;11.50;86.20;;;;;;5076717;28;20490;-67
2021/12/15 05:57:38;;;;;;;36.17;23.90;;;11.50;86.20;;;;;;5055961;28;20028;-68
2021/12/15 06:00:11;;;;;;;38.25;22.85;;;11.50;86.20;;;;;;5072647;28;20040;-67
2021/12/15 06:02:37;;;;;;;39.03;24.17;;;11.50;86.20;;;;;;5077715;28;20075;-67
2021/12/15 06:05:04;;;;;;;40.65;24.52;;;11.50;86.20;;;;;;5077541;28;20033;-67
2021/12/15 06:07:29;;;;;;;40.45;24.83;;;11.60;86.20;;;;;;5077435;28;20170;-68
2021/12/15 06:09:55;;;;;;;37.47;23.25;;;11.50;86.20;;;;;;5076262;28;20086;-67
2021/12/15 06:12:21;;;;;;;40.92;23.77;;;11.60;86.30;;;;;;5076081;28;20089;-67
2021/12/15 06:14:46;;;;;;;40.90;24.85;;;11.60;86.20;;;;;;5075682;28;20452;-67
2021/12/15 06:17:12;;;;;;;38.05;21.77;;;11.60;86.20;;;;;;5076406;28;20025;-68
2021/12/15 06:19:39;;;;;;;39.75;24.30;;;11.50;86.20;;;;;;5076973;28;20036;-68
2021/12/15 06:22:06;;;;;;;40.50;25.00;;;11.50;86.20;;;;;;5076869;28;20033;-69
2021/12/15 06:24:32;;;;;;;37.25;22.92;;;11.50;86.20;;;;;;5075882;28;20330;-68
2021/12/15 06:27:04;;;;;;;37.85;23.23;;;11.50;86.20;;;;;;5075506;28;20115;-69
2021/12/15 06:29:29;;;;;;;39.63;24.42;;;11.60;86.30;;;;;;5063575;28;20052;-68
2021/12/15 06:31:56;;;;;;;42.40;25.75;;;11.60;86.20;;;;;;5076624;28;20040;-69
2021/12/15 06:34:22;;;;;;;42.20;23.55;;;11.60;86.20;;;;;;5075088;28;20028;-68
2021/12/15 06:36:48;;;;;;;39.90;24.17;;;11.60;86.20;;;;;;5076538;28;20333;-69
2021/12/15 06:39:14;;;;;;;40.83;24.15;;;11.60;86.20;;;;;;5075877;28;20028;-70
2021/12/15 06:41:39;;;;;;;37.33;23.15;;;11.60;86.20;;;;;;5076209;28;20540;-68
2021/12/15 06:44:05;;;;;;;42.65;25.88;;;11.60;86.20;;;;;;5075741;28;20032;-67
2021/12/15 07:00:14;;;;;;;43.05;25.63;;;11.60;86.20;;;;;;5075476;28;20101;-70
2021/12/15 07:02:41;;;;;;;41.88;24.38;;;11.60;86.30;;;;;;5075871;28;20063;-66
2021/12/15 07:05:08;;;;;;;42.83;26.25;;;11.60;86.20;;;;;;5058735;28;20113;-67
2021/12/15 07:07:36;;;;;;;41.97;24.60;;;11.60;86.30;;;;;;5076777;28;20445;-67
2021/12/15 07:10:03;;;;;;;42.88;24.95;;;11.60;86.30;;;;;;5076313;28;20116;-67
2021/12/15 07:12:29;;;;;;;40.35;23.55;;;11.60;86.30;;;;;;5058905;28;20035;-68
2021/12/15 07:14:55;;;;;;;38.30;23.60;;;11.60;86.30;;;;;;5076370;28;20107;-68
2021/12/15 07:17:23;;;;;;;39.10;24.73;;;11.60;86.20;;;;;;5075572;28;20360;-68
2021/12/15 07:22:43;;;;;;;39.38;23.67;;;11.60;86.20;;;;;;5076630;28;20028;-69
2021/12/15 07:25:10;;;;;;;39.40;24.02;;;11.60;86.30;;;;;;5076144;28;20036;-69
2021/12/15 07:27:36;;;;;;;40.72;22.73;;;11.60;86.30;;;;;;5074798;28;20425;-69
2021/12/15 07:30:04;;;;;;;39.17;23.35;;;11.60;86.30;;;;;;5075009;28;20123;-69
2021/12/15 07:32:30;;;;;;;45.20;25.88;;;11.60;86.30;;;;;;5074879;28;20433;-68
2021/12/15 07:34:56;;;;;;;41.92;24.25;;;11.60;86.30;;;;;;5074591;28;20099;-69
2021/12/15 07:37:22;;;;;;;41.08;24.08;;;11.60;86.30;;;;;;5075708;28;20047;-67
2021/12/15 07:39:57;;;;;;;40.28;23.65;;;11.60;86.30;;;;;;5075710;28;20089;-68
2021/12/15 07:42:32;;;;;;;43.30;24.55;;;11.60;86.30;;;;;;5074867;28;20532;-72
2021/12/15 07:44:58;;;;;;;46.83;25.35;;;11.60;86.30;;;;;;5076062;28;20108;-73
2021/12/15 07:47:24;;;;;;;39.67;23.08;;;11.70;86.30;;;;;;5075882;28;20116;-73
2021/12/15 07:49:49;;;;;;;45.10;24.67;;;11.70;86.30;;;;;;5075614;28;20036;-72
2021/12/15 07:52:15;;;;;;;40.85;23.80;;;11.70;86.30;;;;;;5054686;28;20041;-73
2021/12/15 07:54:41;;;;;;;43.55;24.38;;;11.70;86.30;;;;;;5061899;28;20052;-73
2021/12/15 07:57:11;;;;;;;41.45;24.00;;;11.70;86.30;;;;;;5054478;28;20117;-73
2021/12/15 07:59:37;;;;;;;48.22;25.15;;;11.70;86.30;;;;;;5061291;28;20036;-72
2021/12/15 08:02:03;;;;;;;38.25;22.70;;;11.70;86.40;;;;;;5073518;28;20028;-74
2021/12/15 08:04:29;;;;;;;42.08;23.10;;;11.70;86.40;;;;;;5074404;28;20107;-72
2021/12/15 08:06:55;;;;;;;47.35;25.38;;;11.70;86.40;;;;;;5074924;28;20119;-72
2021/12/15 08:09:22;;;;;;;42.97;24.88;;;11.70;87.10;;;;;;5074185;28;20040;-72
2021/12/15 08:11:48;;;;;;;45.22;24.65;;;11.70;86.50;;;;;;5057646;28;20452;-72
2021/12/15 08:14:15;;;;;;;45.03;25.05;;;11.70;86.50;;;;;;5073995;28;20055;-72
2021/12/15 08:16:41;;;;;;;43.00;24.55;;;11.70;86.50;;;;;;5074460;28;20024;-72
2021/12/15 08:19:08;;;;;;;47.55;25.00;;;11.70;86.50;;;;;;5075370;28;20047;-71
2021/12/15 08:21:34;;;;;;;42.33;24.23;;;11.70;86.60;;;;;;5055834;28;20204;-72
2021/12/15 08:24:01;;;;;;;43.22;23.73;;;11.70;86.60;;;;;;5072634;28;20114;-72
2021/12/15 08:26:26;;;;;;;45.00;24.02;;;11.70;86.70;;;;;;5075306;28;20039;-73
2021/12/15 08:28:53;;;;;;;48.45;24.25;;;11.70;86.70;;;;;;5057285;28;20049;-72
2021/12/15 08:31:19;;;;;;;47.75;24.55;;;11.70;86.70;;;;;;5073644;28;20050;-72
2021/12/15 08:33:45;;;;;;;47.78;25.00;;;11.70;86.70;;;;;;5074164;28;20028;-72
2021/12/15 08:36:12;;;;;;;45.38;23.98;;;11.70;86.80;;;;;;5074841;28;20028;-73
2021/12/15 08:38:41;;;;;;;50.83;26.45;;;11.70;86.70;;;;;;5072948;28;20445;-72
2021/12/15 08:41:19;;;;;;;45.85;25.10;;;11.70;86.80;;;;;;5074147;28;20078;-72
2021/12/15 08:43:45;;;;;;;50.17;26.40;;;11.70;86.70;;;;;;5074265;28;20036;-72
2021/12/15 08:46:22;;;;;;;45.78;24.40;;;11.70;86.70;;;;;;5071831;28;20468;-73
2021/12/15 08:48:50;;;;;;;48.65;25.80;;;11.70;86.80;;;;;;5055904;28;20526;-74
2021/12/15 08:51:18;;;;;;;48.22;23.55;;;11.70;86.70;;;;;;5069283;28;20017;-73
2021/12/15 08:53:47;;;;;;;48.83;25.88;;;11.70;86.70;;;;;;5078455;28;20028;-72
2021/12/15 08:56:12;;;;;;;55.38;25.98;;;11.80;86.80;;;;;;5071938;28;20115;-73
2021/12/15 08:58:38;;;;;;;44.25;25.50;;;11.80;86.80;;;;;;5072723;28;20107;-74
2021/12/15 09:01:06;;;;;;;45.85;24.05;;;11.80;86.70;;;;;;5073558;28;20425;-73
2021/12/15 09:03:32;;;;;;;45.60;24.63;;;11.80;86.70;;;;;;5055750;28;20021;-73
2021/12/15 09:06:00;;;;;;;48.22;25.58;;;11.80;86.70;;;;;;5072862;28;20037;-73
2021/12/15 09:08:27;;;;;;;47.70;25.38;;;11.80;86.70;;;;;;5072860;28;20041;-72
2021/12/15 09:10:56;;;;;;;48.97;25.92;;;11.80;86.70;;;;;;5071627;28;20032;-72
2021/12/15 09:13:24;;;;;;;47.08;25.00;;;11.80;86.70;;;;;;5054378;28;20087;-73
2021/12/15 09:15:50;;;;;;;46.00;25.90;;;11.80;86.70;;;;;;5072440;28;20059;-71
2021/12/15 09:18:16;;;;;;;50.95;26.98;;;11.80;86.70;;;;;;5072137;28;20023;-72
2021/12/15 09:20:43;;;;;;;43.83;24.33;;;11.80;86.70;;;;;;5072834;28;20020;-71
2021/12/15 09:23:13;;;;;;;41.30;23.55;;;11.80;86.70;;;;;;5051421;28;20062;-71
2021/12/15 09:25:39;;;;;;;45.78;23.58;;;11.80;86.70;;;;;;5072188;28;20157;-72
2021/12/15 09:28:05;;;;;;;51.08;25.58;;;11.80;86.70;;;;;;5072018;28;20142;-73
2021/12/15 09:30:32;;;;;;;47.47;25.45;;;11.80;86.70;;;;;;5071988;28;20090;-74
2021/12/15 09:32:59;;;;;;;44.58;23.77;;;11.80;86.70;;;;;;5051346;28;20051;-72
2021/12/15 09:35:31;;;;;;;50.00;26.63;;;11.90;86.80;;;;;;5073622;28;20103;-73
2021/12/15 09:37:57;;;;;;;45.08;25.17;;;11.90;86.80;;;;;;5072721;28;20036;-74
2021/12/15 09:40:23;;;;;;;48.03;27.10;;;11.90;86.80;;;;;;5072616;28;20016;-73
2021/12/15 09:42:50;;;;;;;46.80;25.00;;;11.90;86.80;;;;;;5071778;28;20032;-73
2021/12/15 09:45:37;;;;;;;49.92;26.25;;;11.90;87.40;;;;;;5072427;28;20029;-71
2021/12/15 09:56:22;;;;;;;44.58;23.55;;;11.90;86.80;;;;;;5072992;28;20085;-73
2021/12/15 10:04:34;;;;;;;46.13;24.30;;;11.90;86.80;;;;;;5074220;28;20036;-72
2021/12/15 10:18:05;;;;;;;48.13;25.38;;;12.00;86.60;;;;;;5071537;28;20028;-71
2021/12/15 10:20:37;;;;;;;46.38;25.20;;;12.00;86.70;;;;;;5055279;28;20111;-72
2021/12/15 10:23:11;;;;;;;44.78;25.25;;;12.00;86.70;;;;;;5071948;28;20035;-72
2021/12/15 10:25:43;;;;;;;46.17;25.52;;;12.00;86.70;;;;;;5057961;28;20032;-72
2021/12/15 10:28:16;;;;;;;45.65;26.13;;;12.00;86.70;;;;;;5076352;28;20045;-72
2021/12/15 10:30:49;;;;;;;46.72;27.02;;;12.10;86.70;;;;;;5076981;28;20040;-72
2021/12/15 10:33:25;;;;;;;46.30;24.95;;;12.00;86.60;;;;;;5075854;28;20472;-72
2021/12/15 10:35:55;;;;;;;45.90;24.83;;;12.10;86.60;;;;;;5076307;28;20121;-71
2021/12/15 10:38:28;;;;;;;46.88;24.13;;;12.10;86.60;;;;;;5076777;28;20070;-72
2021/12/15 10:41:00;;;;;;;43.33;25.65;;;12.10;86.50;;;;;;5076165;28;20021;-72
2021/12/15 10:43:31;;;;;;;44.45;25.88;;;12.10;86.50;;;;;;5077083;28;20111;-72
2021/12/15 10:46:00;;;;;;;45.08;25.35;;;12.10;86.50;;;;;;5075350;28;20029;-72
2021/12/15 10:48:36;;;;;;;47.03;25.65;;;12.10;86.50;;;;;;5075404;28;20035;-72
2021/12/15 10:51:34;;;;;;;43.17;25.15;;;12.10;86.50;;;;;;5075049;28;20029;-72
2021/12/15 10:54:13;;;;;;;43.03;24.90;;;12.20;86.40;;;;;;5072413;28;20374;-71
2021/12/15 10:56:42;;;;;;;43.50;24.88;;;12.20;86.40;;;;;;5058549;28;20027;-71
2021/12/15 10:59:12;;;;;;;42.95;25.23;;;12.20;86.40;;;;;;5073582;28;20040;-72
2021/12/15 11:01:48;;;;;;;39.72;23.58;;;12.20;86.30;;;;;;5058139;28;20071;-72
2021/12/15 11:04:20;;;;;;;42.60;25.27;;;12.20;86.20;;;;;;5073088;28;20425;-71
2021/12/15 11:06:59;;;;;;;;;;;12.30;86.20;;;;;;5075679;28;20029;-72
2021/12/15 11:09:24;;;;;;;36.33;21.42;;;12.30;86.10;;;;;;5075062;28;19912;-71
2021/12/15 11:12:01;;;;;;;41.47;25.95;;;12.30;86.10;;;;;;5075874;28;20041;-72
2021/12/15 11:14:30;;;;;;;39.47;23.45;;;12.30;86.10;;;;;;5074909;28;20096;-71
2021/12/15 11:17:13;;;;;;;43.65;25.65;;;12.30;86.10;;;;;;5075824;28;20507;-71
2021/12/15 11:19:46;;;;;;;39.63;24.10;;;12.30;86.10;;;;;;5074309;28;20486;-71
2021/12/15 11:22:43;;;;;;;37.53;23.67;;;12.40;86.10;;;;;;5067103;28;20035;-74
2021/12/15 11:25:23;;;;;;;40.22;23.88;;;12.40;86.00;;;;;;5073726;28;20445;-73
2021/12/15 11:28:12;;;;;;;37.05;23.52;;;12.40;86.10;;;;;;5072851;28;20024;-74
2021/12/15 11:30:43;;;;;;;39.95;24.88;;;12.40;86.00;;;;;;5073196;28;20039;-73
2021/12/15 11:33:16;;;;;;;40.45;25.38;;;12.40;86.00;;;;;;5074960;28;20123;-73
2021/12/15 11:35:50;;;;;;;43.47;24.98;;;12.40;85.90;;;;;;5057227;28;20035;-73
2021/12/15 11:38:21;;;;;;;42.70;26.45;;;12.40;85.90;;;;;;5074346;28;20035;-73
2021/12/15 11:40:57;;;;;;;42.42;25.85;;;12.40;85.90;;;;;;5074764;28;20027;-73
2021/12/15 11:43:37;;;;;;;36.70;23.75;;;12.50;85.90;;;;;;5074830;28;20043;-74
2021/12/15 11:46:17;;;;;;;41.10;25.10;;;12.50;85.90;;;;;;5074865;28;20024;-72
2021/12/15 11:48:45;;;;;;;41.08;26.02;;;12.50;85.80;;;;;;5074570;28;20040;-73
2021/12/15 11:51:12;;;;;;;37.20;22.98;;;12.50;85.70;;;;;;5057248;28;20068;-74
2021/12/15 11:53:44;;;;;;;35.28;22.08;;;12.50;85.70;;;;;;5075377;28;20028;-71
2021/12/15 11:56:32;;;;;;;41.22;25.92;;;12.60;85.70;;;;;;5074291;28;20028;-73
2021/12/15 11:59:34;;;;;;;33.45;22.55;;;12.50;85.60;;;;;;5074519;28;20385;-73
2021/12/15 12:02:07;;;;;;;35.58;21.75;;;12.60;86.10;;;;;;5074990;28;20082;-72
2021/12/15 12:04:46;;;;;;;35.10;23.63;;;12.60;85.50;;;;;;5074804;28;20742;-73
2021/12/15 12:07:14;;;;;;;36.30;23.10;;;12.60;85.50;;;;;;5074567;28;20024;-71
2021/12/15 12:09:48;;;;;;;31.67;21.40;;;12.50;85.50;;;;;;5073889;28;20350;-72
2021/12/15 12:12:16;;;;;;;37.13;24.27;;;12.50;85.50;;;;;;5057751;28;20476;-71
2021/12/15 12:14:48;;;;;;;36.33;22.77;;;12.50;85.50;;;;;;5053527;28;20393;-72
2021/12/15 12:17:21;;;;;;;36.78;23.60;;;12.50;85.50;;;;;;5074464;28;20031;-72
2021/12/15 12:19:50;;;;;;;33.95;23.23;;;12.50;85.50;;;;;;5072062;28;20048;-71
2021/12/15 12:22:17;;;;;;;36.70;24.17;;;12.50;85.50;;;;;;5075359;28;20111;-71
2021/12/15 12:24:45;;;;;;;34.25;22.52;;;12.50;85.50;;;;;;5073226;28;20059;-71
2021/12/15 12:27:12;;;;;;;35.17;22.90;;;12.50;85.40;;;;;;5073333;28;20035;-71
2021/12/15 12:29:38;;;;;;;33.45;22.27;;;12.50;85.50;;;;;;5070370;28;20345;-71
2021/12/15 12:32:04;;;;;;;35.78;24.17;;;12.50;85.40;;;;;;5070466;28;20032;-71
2021/12/15 12:34:31;;;;;;;34.03;21.65;;;12.50;85.40;;;;;;5072850;28;20463;-71
2021/12/15 12:36:58;;;;;;;34.33;22.42;;;12.50;85.30;;;;;;5068889;28;20049;-72
2021/12/15 12:39:34;;;;;;;32.30;21.60;;;12.60;85.30;;;;;;5059386;28;20159;-72
2021/12/15 12:42:00;;;;;;;33.40;23.20;;;12.60;85.10;;;;;;5065866;28;20032;-72
2021/12/15 12:44:36;;;;;;;31.13;21.58;;;12.70;85.10;;;;;;5053124;28;20028;-71
2021/12/15 12:47:11;;;;;;;29.45;19.65;;;12.70;85.00;;;;;;5054880;28;20036;-72
2021/12/15 12:50:02;;;;;;;31.70;19.58;;;12.70;84.90;;;;;;5056468;28;20087;-72
2021/12/15 13:00:33;;;;;;;30.38;19.98;;;12.80;84.70;;;;;;5074077;28;20024;-72
2021/12/15 13:03:13;;;;;;;28.00;18.58;;;12.80;84.70;;;;;;5074391;28;20445;-71
2021/12/15 13:05:56;;;;;;;29.60;18.75;;;12.70;84.50;;;;;;5072745;28;20050;-72
2021/12/15 13:08:40;;;;;;;27.90;18.63;;;12.80;84.50;;;;;;5073242;28;20066;-71
2021/12/15 13:11:22;;;;;;;28.25;18.75;;;12.70;84.50;;;;;;5073850;28;20456;-71
2021/12/15 13:14:13;;;;;;;28.75;19.83;;;12.80;84.60;;;;;;5074499;28;20041;-71
2021/12/15 13:16:57;;;;;;;29.63;19.48;;;12.80;84.50;;;;;;5056185;28;20021;-72
2021/12/15 13:19:27;;;;;;;27.27;19.25;;;12.80;84.50;;;;;;5073251;28;20036;-72
2021/12/15 13:23:06;;;;;;;29.42;20.45;;;12.80;84.50;;;;;;5073312;28;20086;-71
2021/12/15 13:30:47;;;;;;;21.92;15.50;;;12.80;84.40;;;;;;5073615;28;20052;-71
2021/12/15 13:33:37;;;;;;;21.35;15.50;;;12.80;84.30;;;;;;5072932;28;20484;-72
2021/12/15 13:36:20;;;;;;;24.42;16.17;;;12.90;84.10;;;;;;5069728;28;20056;-72
2021/12/15 13:38:48;;;;;;;25.20;16.13;;;12.80;84.00;;;;;;5053017;28;20457;-71
2021/12/15 13:41:59;;;;;;;25.45;16.65;;;12.80;84.00;;;;;;5067498;28;20032;-74
2021/12/15 13:44:35;;;;;;;23.52;15.85;;;12.90;84.00;;;;;;5068922;28;20468;-74
2021/12/15 13:47:06;;;;;;;24.98;17.08;;;12.80;84.10;;;;;;5073959;28;20037;-72
2021/12/15 13:49:51;;;;;;;23.80;16.48;;;12.80;84.00;;;;;;5056387;28;20064;-73
2021/12/15 13:52:35;;;;;;;23.33;15.57;;;12.80;84.00;;;;;;5073416;28;20512;-72
2021/12/15 13:55:20;;;;;;;22.80;16.15;;;12.80;84.00;;;;;;5072512;28;20021;-73
2021/12/15 13:57:45;;;;;;;22.95;15.07;;;12.80;84.00;;;;;;5065774;28;20107;-72
2021/12/15 14:00:25;;;;;;;23.75;15.60;;;12.80;84.00;;;;;;5073490;28;20120;-72
2021/12/15 14:02:56;;;;;;;23.42;15.85;;;12.80;84.00;;;;;;5077253;28;20090;-72
2021/12/15 14:05:30;;;;;;;23.42;15.00;;;12.80;83.90;;;;;;5074995;28;20036;-72
2021/12/15 14:08:39;;;;;;;21.58;13.70;;;12.80;83.90;;;;;;5076649;28;20024;-73
2021/12/15 14:11:18;;;;;;;17.52;12.40;;;12.80;83.70;;;;;;5064254;28;20123;-73